Arcturus, Minnesota
Current Conditions -  °F | °C
As of 3:15 PM on Thursday 20 Nov 2014 (Local Time) from KGPZ Reporting Station
Clear Clear  
Wind Chill: -21°   Ceiling: Unl
Heat Index: -12°   Visibility: 10mi
Dew Point: -18°   Wind: 15mph
Humidity: 62%   Direction: 300°WNW
Pressure: 30.05"   Gusts: NA
Location:  47.3121°N, 93.3823°W
Report Text: KGPZ 202115Z AUTO 30013KT 10SM CLR M12/M18 A3005 RMK AO1
Loading
Personal Weather Stations






























Interactive Weather Map New forecast layout! Learn more

10-Day Weather Forecast

Advertisements
Track Severe Weather on mobile